NOAA-Style Climate Reports


Report for 2017 Junho
                   Monthly Climatological Summary for jun 2017

Name: Estação Jardim Recreio   City: Ribeirão Preto   State: São Paulo
Elevation: 580 m  Lat: S 21° 10' 40"   Lon: W 047° 48' 36"

                  Temperature (°C), Rain (mm), Wind Speed (km/h)

                                      Heat  Cool        Avg
    Mean                              Deg   Deg         Wind                 Dom
Day Temp  High   Time   Low    Time   Days  Days  Rain  Speed High   Time    Dir
----------------------------------------------------------------------------------
 1  20,4  27,1   17:37  19,1   17:37   0,0   2,4 242,4   0,0   1,0   00:00     E
 2  19,1  19,1   00:00  19,1   00:00   0,0   0,8   0,0   0,0   0,0   00:00     E
 3  19,1  19,1   00:00  19,1   00:00   0,0   0,8   0,0   0,0   0,0   00:00     E
 4  19,1  19,1   00:00  19,1   00:00   0,0   0,8   0,0   0,0   0,0   00:00     E
 5  17,5  19,5   23:53  10,4   21:17   1,4   0,6 181,8   0,0   1,0   23:14     E
 6  17,7  27,4   06:23   8,9   21:33   3,1   2,5   0,0   0,2  13,0   06:36   ESE
 7  20,0  30,6   06:26  12,0   21:10   1,7   3,5   0,0   0,1   5,0   06:13     S
 8  22,1  31,8   06:16  13,8   21:39   0,8   4,6   0,0   0,3  11,0   04:32   SSW
 9  27,1  31,0   11:54  16,2   21:39   0,2   5,9   0,0   2,7  11,0   11:28   SSE
10  16,2  16,2   00:00  16,2   00:00   2,1   0,0   0,0   3,0   5,0   00:00    SW
11  20,8  27,1   12:21  16,2   00:00   1,1   3,8 180,3   1,5   5,0   00:00    SW
12  23,8  23,8   00:00  23,8   00:00   0,0   5,5 180,3   0,0   1,0   00:00     E
13  23,8  23,8   00:00  23,8   00:00   0,0   5,5 180,3   0,0   1,0   00:00     E
14  23,8  23,8   00:00  23,8   00:00   0,0   5,5 180,3   0,0   1,0   00:00     E
15  23,8  23,8   00:00  23,8   00:00   0,0   5,5 180,3   0,0   1,0   00:00     E
16  23,8  23,8   00:00  23,8   00:00   0,0   5,5 180,3   0,0   1,0   00:00     E
17  23,8  23,8   00:00  23,8   00:00   0,0   5,5 180,3   0,0   1,0   00:00     E
18  23,8  23,8   00:00  23,8   00:00   0,0   5,5 180,3   0,0   1,0   00:00     E
19  23,8  23,8   00:00  23,8   00:00   0,0   5,5 180,3   0,0   1,0   00:00     E
20  23,8  23,8   00:00  23,8   00:00   0,0   5,5 180,3   0,0   1,0   00:00     E
21  23,8  23,8   00:00  23,8   00:00   0,0   5,5 180,3   0,0   1,0   00:00     E
22  23,8  23,8   00:00  23,8   00:00   0,0   5,5 180,3   0,0   1,0   00:00     E
23  23,8  23,8   00:00  23,8   00:00   0,0   5,5 180,3   0,0   1,0   00:00     E
24  23,8  23,8   00:00  23,8   00:00   0,0   5,5 180,3   0,0   1,0   00:00     E
25  23,8  23,8   00:00  23,8   00:00   0,0   5,5 180,3   0,0   1,0   00:00     E
26  23,8  23,8   00:00  23,8   00:00   0,0   5,5 180,3   0,0   1,0   00:00     E
----------------------------------------------------------------------------------
    22,2  31,8     8     8,9     6    10,4 108,23309,0   0,2  13,0     6     SSW

Max >=  27,0:  6
Max <=   0,0:  0
Min <=   0,0:  0
Min <= -18,0:  0
Max Rain: 242,4 on day 1
Days of Rain: 18 (>= 0,2 mm)  18 (>= 2,0 mm)  18 (>= 20,0 mm)
Heat Base: 18,3  Cool Base: 18,3  Method: Integration